Latest Coastal Weather Observations for Brisbane Airport

IDQ60701

Issued at 4:43 pm EST Wednesday 8 February 2023 (issued every 10 minutes, with the page automatically refreshed every 10 minutes)

About coastal observations | Map of coastal stations | Coastal observations for QLD | Marine services | Other Formats
Station Details ID: 040842 Name: BRISBANE AERO Lat: -27.39 Lon: 153.13 Height: 4.51 m
Data from the previous 72 hours. | See also: Recent months at Brisbane Airport
Date/Time
EST
Wind Sea
Height
m
Swell Vis
km
Cloud Weather Temp
°C
Press
MSL
hPa
Rain since
9am
mm
Dir  Spd
kts
Gust
kts
Height
m
Period
s
Dir
08/04:30pm SE 10 17 - - - - 10 Mostly clear - 26.4 1010.6 0.0
08/04:00pm ESE 10 16 - - - - 10 Mostly clear - 26.6 1010.7 0.0
08/03:30pm ESE 11 19 - - - - 10 Mostly clear - 27.1 1010.9 0.0
08/03:00pm ESE 12 19 - - - - 30 Mostly cloudy Fine 26.8 1011.1 0.0
08/02:30pm ESE 11 18 - - - - 10 Mostly clear - 27.4 1011.5 0.0
08/02:00pm ESE 11 17 - - - - 10 Mostly clear - 28.1 1011.6 0.0
08/01:30pm SE 11 18 - - - - 10 Mostly clear - 27.6 1011.9 0.0
08/01:00pm ESE 11 17 - - - - 10 Mostly clear - 28.3 1012.2 0.0
08/12:30pm ESE 11 17 - - - - 10 Mostly clear - 28.8 1012.5 0.0
08/12:00pm SE 11 18 - - - - 30 Mostly cloudy Fine 29.4 1012.5 0.0
08/11:30am ESE 10 16 - - - - 10 Mostly clear - 28.2 1012.8 0.0
08/11:00am ESE 9 16 - - - - 10 Mostly clear - 28.3 1013.1 0.0
08/10:30am ESE 9 15 - - - - 10 Mostly clear - 28.1 1013.2 0.0
08/10:00am SE 10 17 - - - - 10 Mostly clear - 27.8 1013.2 0.0
08/09:30am SE 11 16 - - - - 10 Mostly clear - 27.2 1013.2 0.0
08/09:00am SE 9 15 - - - - 30 Mostly cloudy Fine 26.0 1013.5 0.0
08/08:30am ESE 9 16 - - - - 10 Mostly clear - 26.3 1013.3 0.0
08/08:00am SE 7 10 - - - - 10 Mostly clear - 25.3 1013.4 0.0
08/07:30am SSE 6 9 - - - - 10 Mostly clear - 25.3 1013.1 0.0
08/07:00am S 6 9 - - - - 10 Mostly clear - 23.7 1013.1 0.0
08/06:30am SSW 6 7 - - - - 10 Mostly clear - 23.0 1013.0 0.0
08/06:00am S 6 8 - - - - 30 Mostly cloudy Fine 22.1 1012.7 0.0
08/05:30am S 5 7 - - - - 10 Mostly clear - 21.9 1012.3 0.0
08/05:00am S 5 6 - - - - 10 Mostly clear - 22.0 1012.2 0.0
08/04:30am S 5 7 - - - - 10 Mostly clear - 22.2 1011.9 0.0
08/04:00am S 5 7 - - - - 10 Mostly clear - 22.3 1011.7 0.0
08/03:30am S 5 8 - - - - 10 Mostly clear - 22.6 1011.8 0.0
08/03:00am S 5 7 - - - - 30 Cloudy Fine 22.8 1011.7 0.0
08/02:30am S 5 7 - - - - 10 Partly cloudy - 22.9 1012.0 0.0
08/02:00am SSW 5 8 - - - - 10 Partly cloudy - 23.2 1012.0 0.0
08/01:30am S 5 7 - - - - 10 Partly cloudy - 23.3 1012.3 0.0
08/01:00am S 5 9 - - - - 10 Mostly cloudy - 23.5 1012.6 0.0
08/12:30am S 4 6 - - - - 10 Partly cloudy Showers 23.6 1012.8 0.0
08/12:00am S 4 6 - - - - 30 Mostly cloudy Fine 23.7 1013.1 0.0
 
Date/Time
EST
Wind Sea
Height
m
Swell Vis
km
Cloud Weather Temp
°C
Press
MSL
hPa
Rain since
9am
mm
Dir  Spd
kts
Gust
kts
Height
m
Period
s
Dir
07/11:30pm ESE 6 10 - - - - 10 Partly cloudy - 23.9 1013.4 0.0
07/11:00pm ESE 7 9 - - - - 10 Mostly clear - 24.6 1013.6 0.0
07/10:30pm ESE 7 12 - - - - 10 Mostly clear - 24.6 1013.8 0.0
07/10:00pm ESE 7 11 - - - - 10 Mostly clear - 24.7 1013.9 0.0
07/09:30pm ESE 7 10 - - - - 10 Mostly clear - 24.6 1014.1 0.0
07/09:00pm ESE 8 14 - - - - 30 Mostly cloudy Fine 24.8 1014.0 0.0
07/08:30pm ESE 7 12 - - - - 10 Partly cloudy - 24.9 1013.8 0.0
07/08:00pm ESE 8 11 - - - - 10 Partly cloudy - 24.9 1013.7 0.0
07/07:30pm ESE 8 13 - - - - 10 Partly cloudy - 25.1 1013.3 0.0
07/07:00pm ESE 7 11 - - - - 10 Partly cloudy - 25.2 1013.1 0.0
07/06:30pm ESE 9 15 - - - - 10 Partly cloudy - 25.4 1012.7 0.0
07/06:00pm ESE 9 14 - - - - 30 Mostly cloudy Fine 26.0 1012.5 0.0
07/05:30pm ESE 7 11 - - - - 10 Mostly clear - 26.1 1012.3 0.0
07/05:00pm ESE 9 14 - - - - 10 Mostly clear - 26.3 1012.1 0.0
07/04:30pm ESE 9 16 - - - - 10 Mostly clear - 26.6 1012.2 0.0
07/04:00pm ESE 10 16 - - - - 10 Mostly clear - 27.8 1012.3 0.0
07/03:30pm SE 10 17 - - - - 10 Partly cloudy - 27.3 1012.5 0.0
07/03:00pm ESE 9 15 - - - - 30 Mostly cloudy Fine 27.6 1012.7 0.0
07/02:30pm ESE 9 14 - - - - 10 Mostly clear - 27.3 1012.9 0.0
07/02:00pm ESE 10 17 - - - - 10 Partly cloudy - 27.4 1013.0 0.0
07/01:30pm ESE 10 15 - - - - 10 Partly cloudy - 27.8 1013.2 0.0
07/01:00pm ESE 10 16 - - - - 10 Partly cloudy - 27.1 1013.5 0.0
07/12:30pm ESE 9 14 - - - - 10 Partly cloudy - 26.9 1013.7 0.0
07/12:00pm ESE 10 16 - - - - 30 Mostly cloudy Fine 27.5 1013.7 0.0
07/11:30am ESE 11 16 - - - - 10 Partly cloudy - 27.9 1014.0 0.0
07/11:00am ESE 9 14 - - - - 10 Partly cloudy - 27.5 1014.1 0.0
07/10:30am ESE 9 16 - - - - 10 Partly cloudy - 28.1 1014.4 0.0
07/10:00am SE 8 15 - - - - 10 Partly cloudy - 27.6 1014.7 0.0
07/09:30am SE 8 12 - - - - 10 Partly cloudy - 27.4 1014.7 0.0
07/09:00am SE 7 11 - - - - 30 Mostly cloudy Fine 27.2 1014.4 0.0
07/08:30am SE 7 11 - - - - 10 Mostly clear - 26.5 1014.3 0.0
07/08:00am SE 6 9 - - - - 10 Mostly clear - 25.6 1014.4 0.0
07/07:30am S 6 9 - - - - 10 Mostly clear - 25.0 1014.4 0.0
07/07:00am SSW 6 8 - - - - 10 Mostly clear - 24.3 1014.2 0.0
07/06:30am SSW 6 10 - - - - 10 Mostly clear - 22.8 1014.1 0.0
07/06:00am SSW 6 7 - - - - 30 Partly cloudy Fine 21.6 1013.7 0.0
07/05:30am SSW 6 7 - - - - 10 Mostly clear - 21.1 1013.6 0.0
07/05:00am SSW 5 6 - - - - 10 Mostly clear - 21.4 1013.4 0.0
07/04:30am SSW 5 7 - - - - 10 Mostly clear - 21.4 1013.3 0.0
07/04:00am SSW 6 7 - - - - 10 Mostly clear - 21.7 1013.3 0.0
07/03:30am SSW 3 5 - - - - 10 Mostly clear - 21.8 1013.5 0.0
07/03:00am SSW 4 6 - - - - 30 Mostly clear Fine 21.8 1013.6 0.0
07/02:30am SSW 4 6 - - - - 10 Mostly clear - 21.2 1013.6 0.0
07/02:00am S 5 7 - - - - 10 Mostly clear - 22.7 1013.7 0.0
07/01:30am ESE 7 9 - - - - 10 Mostly clear - 23.0 1013.8 0.0
07/01:00am ESE 6 9 - - - - 10 Mostly clear - 23.8 1014.0 0.0
07/12:30am ESE 6 10 - - - - 10 Mostly clear - 24.4 1014.4 0.0
07/12:00am ESE 7 10 - - - - 30 Partly cloudy Fine 24.5 1014.6 0.0
 
Date/Time
EST
Wind Sea
Height
m
Swell Vis
km
Cloud Weather Temp
°C
Press
MSL
hPa
Rain since
9am
mm
Dir  Spd
kts
Gust
kts
Height
m
Period
s
Dir
06/11:30pm ESE 6 9 - - - - 10 Partly cloudy - 24.5 1015.1 0.0
06/11:00pm ESE 6 11 - - - - 10 Partly cloudy - 24.6 1015.3 0.0
06/10:30pm ESE 7 11 - - - - 10 Partly cloudy - 24.5 1015.4 0.0
06/10:00pm ESE 6 9 - - - - 10 Mostly clear - 24.8 1015.4 0.0
06/09:30pm ESE 7 10 - - - - 10 Partly cloudy - 24.9 1015.6 0.0
06/09:00pm ESE 6 9 - - - - 30 Mostly cloudy Fine 25.0 1015.5 0.0
06/08:30pm ESE 7 11 - - - - 10 Partly cloudy - 25.1 1015.3 0.0
06/08:00pm ESE 6 11 - - - - 10 Partly cloudy - 25.1 1015.3 0.0
06/07:30pm E 7 11 - - - - 10 Partly cloudy - 25.2 1015.2 0.0
06/07:00pm ESE 7 11 - - - - 10 Partly cloudy - 25.2 1014.9 0.0
06/06:30pm ESE 7 12 - - - - 10 - - 25.6 1014.7 0.0
06/06:00pm E 8 15 - - - - 30 Mostly clear Fine 26.2 1014.5 0.0
06/05:30pm ESE 9 16 - - - - 10 Mostly clear - 26.9 1014.3 0.0
06/05:00pm ESE 9 15 - - - - 10 Mostly clear - 27.2 1014.3 0.0
06/04:30pm ESE 9 16 - - - - 10 Mostly clear - 27.7 1014.3 0.0
06/04:00pm ESE 11 17 - - - - 10 - - 27.7 1014.1 0.0
06/03:30pm ESE 12 18 - - - - 10 - - 28.4 1014.1 0.0
06/03:00pm ESE 10 16 - - - - 30 Partly cloudy Fine 28.7 1014.1 0.0
06/02:30pm SE 11 17 - - - - 10 Mostly clear - 28.8 1014.4 0.0
06/02:00pm ESE 10 15 - - - - 10 Mostly clear - 29.1 1014.7 0.0
06/01:30pm ESE 9 16 - - - - 10 Mostly clear - 28.5 1015.0 0.0
06/01:00pm ESE 11 18 - - - - 10 Mostly clear - 29.1 1015.3 0.0
06/12:30pm SE 11 19 - - - - 10 Mostly clear - 28.5 1015.6 0.0
06/12:00pm SE 12 18 - - - - 30 Partly cloudy Fine 28.9 1016.0 0.0
06/11:30am SE 12 20 - - - - 10 Mostly clear - 28.7 1016.2 0.0
06/11:00am ESE 11 17 - - - - 10 Mostly clear - 28.8 1016.2 0.0
06/10:30am SE 11 17 - - - - 10 Mostly clear - 29.2 1016.4 0.0
06/10:00am SE 10 17 - - - - 10 Mostly clear - 28.7 1016.5 0.0
06/09:30am SE 10 16 - - - - 10 Mostly clear - 28.4 1016.6 0.0
06/09:00am SSE 10 16 - - - - 30 Mostly cloudy Fine 27.7 1016.4 0.0
06/08:30am SSE 8 14 - - - - 10 Mostly clear - 27.1 1016.5 0.0
06/08:00am SSE 8 14 - - - - 10 Mostly clear - 26.3 1016.5 0.0
06/07:30am SSE 8 13 - - - - 10 Mostly clear - 25.6 1016.4 0.0
06/07:00am S 7 10 - - - - 10 Mostly clear - 24.4 1016.1 0.0
06/06:30am S 6 9 - - - - 10 Mostly clear - 23.1 1015.9 0.0
06/06:00am SSW 6 7 - - - - 30 Mostly cloudy Smoke 22.5 1015.8 0.0
06/05:30am SSW 6 7 - - - - 10 - - 22.0 1015.4 0.0
06/05:00am SSW 5 6 - - - - 10 - - 22.1 1014.9 0.0
06/04:30am SSW 5 8 - - - - 10 - - 22.1 1014.3 0.0
06/04:00am SSW 5 7 - - - - 10 - - 22.1 1014.1 0.0
06/03:30am SSW 5 7 - - - - 10 - - 22.4 1014.1 0.0
06/03:00am SSW 6 8 - - - - 30 Mostly clear Fine 22.3 1014.2 0.0
06/02:30am SSW 6 7 - - - - 10 Mostly clear - 22.8 1014.0 0.0
06/02:00am SSW 5 7 - - - - 10 Mostly clear - 22.8 1014.2 0.0
06/01:30am SSW 6 7 - - - - 10 Mostly clear - 22.9 1014.2 0.0
06/01:00am SE 5 8 - - - - 10 - - 23.6 1014.4 0.0
06/12:30am SE 7 10 - - - - 10 - - 25.1 1014.7 0.0
06/12:00am SE 6 10 - - - - 30 Mostly clear Fine 25.1 1014.9 0.0
 
Date/Time
EST
Wind Sea
Height
m
Swell Vis
km
Cloud Weather Temp
°C
Press
MSL
hPa
Rain since
9am
mm
Dir  Spd
kts
Gust
kts
Height
m
Period
s
Dir
05/11:30pm ESE 7 15 - - - - 10 - - 25.3 1015.1 0.0
05/11:00pm ESE 7 12 - - - - 10 - - 25.6 1015.3 0.0
05/10:30pm ESE 7 12 - - - - 10 Mostly clear - 25.5 1015.5 0.0
05/10:00pm ESE 9 17 - - - - 10 Mostly clear - 25.7 1015.6 0.0
05/09:30pm ESE 9 14 - - - - 10 Mostly clear - 25.9 1015.3 0.0
05/09:00pm ESE 9 17 - - - - 30 Mostly clear Fine 26.1 1015.2 0.0
05/08:30pm ESE 9 16 - - - - 10 - - 26.1 1015.1 0.0
05/08:00pm ESE 10 17 - - - - 10 - - 26.2 1014.8 0.0
05/07:30pm ESE 10 15 - - - - 10 - - 26.5 1014.5 0.0
05/07:00pm ESE 10 17 - - - - 10 - - 26.5 1014.4 0.0
05/06:30pm ESE 10 18 - - - - 10 - - 26.8 1014.0 0.0
05/06:00pm ESE 9 17 - - - - 30 Mostly clear Fine 27.1 1013.6 0.0
05/05:30pm ESE 11 17 - - - - 10 Mostly clear - 27.4 1013.2 0.0
05/05:00pm SE 10 15 - - - - 10 Mostly clear - 27.7 1012.9 0.0

Other formats

Comma delimited format used in spreadsheet applications
http://www.bom.gov.au/fwo/IDQ60701/IDQ60701.94578.axf

JavaScript Object Notation format (JSON) in row-major order
http://www.bom.gov.au/fwo/IDQ60701/IDQ60701.94578.json

Data quality

Most of these data are generated automatically and are frequently updated. Quality checks on data are not normally performed. It is possible for incorrect values to appear. Refer to information at About Latest Weather Observations and please check the disclaimer before using these data.